Grande-Vallee, Canada
Current Conditions -  °F | °C
As of 3:00 PM on Thursday 29 Jan 2015 (Local Time) from CYGP Reporting Station
Broken Clouds Broken Clouds  
Wind Chill: 13°   Ceiling: 12000
Heat Index: 21°   Visibility: 15mi
Dew Point: 12°   Wind: 7mph
Humidity: 68%   Direction: 90°E
Pressure: 30.19"   Gusts: NA
Location:  49.22°N, 65.13°W
Report Text: CYGP 292000Z 09006KT 15SM SCT030 BKN120 BKN220 M06/M11 A3019 RMK SC3AC2CI1 SLP227
Loading
Personal Weather Stations






























Interactive Weather Map New forecast layout! Learn more

10-Day Weather Forecast

Advertisements
Track Severe Weather on mobile